createdAt,value
2023-04-24T00:00:25.286Z,13.40
2023-04-24T00:02:53.295Z,13.40
2023-04-24T00:05:22.924Z,13.40
2023-04-24T00:07:53.456Z,13.30
2023-04-24T00:10:21.356Z,13.30
2023-04-24T00:12:49.502Z,13.30
2023-04-24T00:15:17.309Z,13.30
2023-04-24T00:17:45.317Z,13.30
2023-04-24T00:20:13.441Z,13.30
2023-04-24T00:22:42.849Z,13.30
2023-04-24T00:25:11.103Z,13.30
2023-04-24T00:27:39.680Z,13.30
2023-04-24T00:30:08.712Z,13.30
2023-04-24T00:32:36.560Z,13.20
2023-04-24T00:35:04.831Z,13.20
2023-04-24T00:37:32.721Z,13.20
2023-04-24T00:40:01.902Z,13.20
2023-04-24T00:42:33.282Z,13.20
2023-04-24T00:45:01.671Z,13.20
2023-04-24T00:47:31.028Z,13.10
2023-04-24T00:49:58.924Z,13.20
2023-04-24T00:52:27.562Z,13.10
2023-04-24T00:54:55.736Z,13.10
2023-04-24T00:57:25.517Z,13.10
2023-04-24T00:59:54.246Z,13.10
2023-04-24T01:02:23.513Z,13.10
2023-04-24T01:04:52.450Z,13.10
2023-04-24T01:07:22.250Z,13.10
2023-04-24T01:09:52.362Z,13.10
2023-04-24T01:12:20.482Z,13.10
2023-04-24T01:14:49.725Z,13.10
2023-04-24T01:17:17.728Z,13.00
2023-04-24T01:19:46.295Z,13.00
2023-04-24T01:22:17.216Z,13.00
2023-04-24T01:24:45.297Z,13.00
2023-04-24T01:27:13.373Z,13.00
2023-04-24T01:29:41.611Z,13.00
2023-04-24T01:32:09.668Z,13.00
2023-04-24T01:34:37.535Z,13.00
2023-04-24T01:37:06.301Z,12.90
2023-04-24T01:39:35.619Z,12.90
2023-04-24T01:42:03.715Z,12.90
2023-04-24T01:44:32.274Z,12.90
2023-04-24T01:47:00.285Z,12.90
2023-04-24T01:49:28.819Z,12.90
2023-04-24T01:51:56.693Z,12.90
2023-04-24T01:54:24.509Z,12.90
2023-04-24T01:56:53.923Z,12.90
2023-04-24T01:59:23.574Z,12.90
2023-04-24T02:01:51.461Z,12.90
2023-04-24T02:04:19.464Z,12.90
2023-04-24T02:06:47.363Z,12.80
2023-04-24T02:09:15.223Z,12.80
2023-04-24T02:11:43.113Z,12.80
2023-04-24T02:14:12.333Z,12.80
2023-04-24T02:16:40.225Z,12.80
2023-04-24T02:19:08.167Z,12.80
2023-04-24T02:21:36.225Z,12.80
2023-04-24T02:24:04.688Z,12.80
2023-04-24T02:26:32.783Z,12.80
2023-04-24T02:29:00.907Z,12.80
2023-04-24T02:31:30.165Z,12.70
2023-04-24T02:33:58.044Z,12.70
2023-04-24T02:36:26.099Z,12.70
2023-04-24T02:38:53.955Z,12.70
2023-04-24T02:41:21.813Z,12.70
2023-04-24T02:43:49.610Z,12.70
2023-04-24T02:46:17.558Z,12.70
2023-04-24T02:48:46.996Z,12.60
2023-04-24T02:51:14.874Z,12.60
2023-04-24T02:53:42.789Z,12.60
2023-04-24T02:56:13.277Z,12.60
2023-04-24T02:58:41.193Z,12.60
2023-04-24T03:01:10.518Z,12.60
2023-04-24T03:03:38.790Z,12.60
2023-04-24T03:06:08.867Z,12.60
2023-04-24T03:08:36.864Z,12.60
2023-04-24T03:11:04.799Z,12.50
2023-04-24T03:13:32.605Z,12.50
2023-04-24T03:16:00.492Z,12.50
2023-04-24T03:18:28.327Z,12.50
2023-04-24T03:20:56.202Z,12.50
2023-04-24T03:23:25.430Z,12.50
2023-04-24T03:25:53.256Z,12.50
2023-04-24T03:28:21.296Z,12.40
2023-04-24T03:30:49.163Z,12.40
2023-04-24T03:33:16.979Z,12.40
2023-04-24T03:35:44.835Z,12.30
2023-04-24T03:38:12.763Z,12.30
2023-04-24T03:40:41.981Z,12.20
2023-04-24T03:43:09.847Z,12.30
2023-04-24T03:45:37.699Z,12.30
2023-04-24T03:48:05.823Z,12.30
2023-04-24T03:50:33.742Z,12.20
2023-04-24T03:53:01.597Z,12.30
2023-04-24T03:55:29.417Z,12.20
2023-04-24T03:57:58.548Z,12.20
2023-04-24T04:00:27.054Z,12.20
2023-04-24T04:02:55.042Z,12.20
2023-04-24T04:05:23.263Z,12.20
2023-04-24T04:07:51.219Z,12.20
2023-04-24T04:10:19.771Z,12.20
2023-04-24T04:12:47.619Z,12.20
2023-04-24T04:15:16.904Z,12.20
2023-04-24T04:17:44.767Z,12.20
2023-04-24T04:20:12.968Z,12.20
2023-04-24T04:22:44.153Z,12.20
2023-04-24T04:25:14.506Z,12.20
2023-04-24T04:27:42.545Z,12.10
2023-04-24T04:30:11.011Z,12.10
2023-04-24T04:32:40.301Z,12.10
2023-04-24T04:35:08.742Z,12.10
2023-04-24T04:37:36.717Z,12.10
2023-04-24T04:40:07.952Z,12.00
2023-04-24T04:42:35.945Z,12.00
2023-04-24T04:45:05.113Z,12.00
2023-04-24T04:47:33.630Z,12.00
2023-04-24T04:50:04.800Z,12.00
2023-04-24T04:52:32.511Z,12.00
2023-04-24T04:55:00.329Z,12.00
2023-04-24T04:57:28.150Z,12.00
2023-04-24T04:59:55.977Z,11.90
2023-04-24T05:02:23.947Z,11.90
2023-04-24T05:04:52.045Z,11.90
2023-04-24T05:07:21.435Z,11.90
2023-04-24T05:09:49.270Z,11.80
2023-04-24T05:12:17.280Z,11.80
2023-04-24T05:14:45.114Z,11.80
2023-04-24T05:17:12.996Z,11.80
2023-04-24T05:19:41.119Z,11.80
2023-04-24T05:22:10.707Z,11.80
2023-04-24T05:24:40.047Z,11.70
2023-04-24T05:27:08.161Z,11.80
2023-04-24T05:29:36.098Z,11.70
2023-04-24T05:32:04.641Z,11.70
2023-04-24T05:34:32.520Z,11.70
2023-04-24T05:37:00.521Z,11.70
2023-04-24T05:39:28.412Z,11.70
2023-04-24T05:41:59.117Z,11.70
2023-04-24T05:44:27.349Z,11.70
2023-04-24T05:46:56.925Z,11.70
2023-04-24T05:49:25.001Z,11.70
2023-04-24T05:51:52.933Z,11.70
2023-04-24T05:54:20.969Z,11.70
2023-04-24T05:56:48.786Z,11.70
2023-04-24T05:59:18.069Z,11.60
2023-04-24T06:01:46.208Z,11.60
2023-04-24T06:04:15.923Z,11.70
2023-04-24T06:06:44.022Z,11.70
2023-04-24T06:09:12.936Z,11.70
2023-04-24T06:11:40.824Z,11.70
2023-04-24T06:14:08.692Z,11.70
2023-04-24T06:16:37.879Z,11.70
2023-04-24T06:19:06.027Z,11.70
2023-04-24T06:21:33.866Z,11.70
2023-04-24T06:24:01.939Z,11.70
2023-04-24T06:26:29.885Z,11.70
2023-04-24T06:28:59.468Z,11.70
2023-04-24T06:31:27.357Z,11.70
2023-04-24T06:33:56.624Z,11.70
2023-04-24T06:36:24.509Z,11.60
2023-04-24T06:38:53.242Z,11.70
2023-04-24T06:41:21.301Z,11.70
2023-04-24T06:43:49.084Z,11.70
2023-04-24T06:46:16.967Z,11.60
2023-04-24T06:48:45.463Z,11.60
2023-04-24T06:51:14.698Z,11.60
2023-04-24T06:53:42.524Z,11.60
2023-04-24T06:56:10.443Z,11.60
2023-04-24T06:58:38.380Z,11.60
2023-04-24T07:01:06.564Z,11.60
2023-04-24T07:03:34.727Z,11.60
2023-04-24T07:06:08.845Z,11.60
2023-04-24T07:08:38.166Z,11.60
2023-04-24T07:11:06.617Z,11.60
2023-04-24T07:13:36.334Z,11.60
2023-04-24T07:16:04.881Z,11.60
2023-04-24T07:18:32.864Z,11.60
2023-04-24T07:21:00.752Z,11.70
2023-04-24T07:23:28.678Z,11.70
2023-04-24T07:25:58.514Z,11.70
2023-04-24T07:28:26.770Z,11.60
2023-04-24T07:30:55.188Z,11.70
2023-04-24T07:33:23.169Z,11.60
2023-04-24T07:35:51.279Z,11.60
2023-04-24T07:38:21.544Z,11.60
2023-04-24T07:40:49.597Z,11.60
2023-04-24T07:43:18.942Z,11.50
2023-04-24T07:45:46.787Z,11.50
2023-04-24T07:48:17.196Z,11.50
2023-04-24T07:50:45.186Z,11.40
2023-04-24T07:53:13.219Z,11.40
2023-04-24T07:55:41.071Z,11.40
2023-04-24T07:58:09.113Z,11.40
2023-04-24T08:00:38.292Z,11.40
2023-04-24T08:03:06.279Z,11.40
2023-04-24T08:05:34.292Z,11.40
2023-04-24T08:08:02.333Z,11.40
2023-04-24T08:10:30.186Z,11.40
2023-04-24T08:12:58.073Z,11.40
2023-04-24T08:15:25.986Z,11.40
2023-04-24T08:17:56.676Z,11.40
2023-04-24T08:20:26.511Z,11.40
2023-04-24T08:22:55.657Z,11.40
2023-04-24T08:25:25.535Z,11.40
2023-04-24T08:27:53.469Z,11.50
2023-04-24T08:30:21.434Z,11.50
2023-04-24T08:32:50.108Z,11.50
2023-04-24T08:35:19.618Z,11.50
2023-04-24T08:37:47.551Z,11.50
2023-04-24T08:40:17.514Z,11.60
2023-04-24T08:42:46.530Z,11.60
2023-04-24T08:45:15.056Z,11.60
2023-04-24T08:47:45.092Z,11.60
2023-04-24T08:50:13.568Z,11.60
2023-04-24T08:52:44.390Z,11.60
2023-04-24T08:55:12.402Z,11.60
2023-04-24T08:57:41.383Z,11.60
2023-04-24T09:00:11.957Z,11.70
2023-04-24T09:02:44.432Z,11.60
2023-04-24T09:05:12.751Z,11.70
2023-04-24T09:07:44.001Z,11.70
2023-04-24T09:10:12.196Z,11.70
2023-04-24T09:12:40.072Z,11.70
2023-04-24T09:15:10.084Z,11.80
2023-04-24T09:17:39.024Z,11.80
2023-04-24T09:20:08.155Z,11.80
2023-04-24T09:22:36.507Z,11.80
2023-04-24T09:25:08.296Z,11.80
2023-04-24T09:27:37.042Z,11.80
2023-04-24T09:30:06.490Z,11.80
2023-04-24T09:32:34.388Z,11.80
2023-04-24T09:35:10.213Z,11.80
2023-04-24T09:37:39.253Z,11.80
2023-04-24T09:40:17.168Z,11.80
2023-04-24T09:42:53.150Z,11.80
2023-04-24T09:45:21.810Z,11.80
2023-04-24T09:47:54.799Z,11.80
2023-04-24T09:50:23.418Z,11.80
2023-04-24T09:52:59.317Z,11.80
2023-04-24T09:55:29.056Z,11.80
2023-04-24T09:57:58.625Z,11.70
2023-04-24T10:00:28.427Z,11.80
2023-04-24T10:03:00.452Z,11.80
2023-04-24T10:05:33.338Z,11.80
2023-04-24T10:08:05.672Z,11.80
2023-04-24T10:10:41.103Z,11.80
2023-04-24T10:13:10.902Z,11.90
2023-04-24T10:15:39.742Z,11.90
2023-04-24T10:18:08.269Z,11.90
2023-04-24T10:20:38.166Z,11.90
2023-04-24T10:23:06.721Z,11.90
2023-04-24T10:25:37.574Z,11.90
2023-04-24T10:28:08.413Z,11.90
2023-04-24T10:30:37.852Z,11.90
2023-04-24T10:33:07.679Z,11.90
2023-04-24T10:35:40.286Z,11.90
2023-04-24T10:38:11.065Z,11.90
2023-04-24T10:40:40.361Z,11.90
2023-04-24T10:43:11.882Z,11.90
2023-04-24T10:45:40.374Z,11.90
2023-04-24T10:48:12.100Z,11.90
2023-04-24T10:50:49.106Z,11.80
2023-04-24T10:53:19.098Z,11.80
2023-04-24T10:55:50.049Z,11.80
2023-04-24T10:58:18.807Z,11.80
2023-04-24T11:00:57.089Z,11.90
2023-04-24T11:03:27.077Z,11.90
2023-04-24T11:05:59.117Z,12.00
2023-04-24T11:08:29.541Z,11.90
2023-04-24T11:11:01.059Z,12.00
2023-04-24T11:13:50.362Z,12.00
2023-04-24T11:16:23.613Z,12.00
2023-04-24T11:18:55.223Z,12.10
2023-04-24T11:21:24.791Z,12.20
2023-04-24T11:23:52.814Z,12.20
2023-04-24T11:26:25.611Z,12.20
2023-04-24T11:28:53.508Z,12.20
2023-04-24T11:31:38.036Z,12.20
2023-04-24T11:34:13.120Z,12.20
2023-04-24T11:36:41.372Z,12.20
2023-04-24T11:39:09.285Z,12.20
2023-04-24T11:41:38.621Z,12.10
2023-04-24T11:44:11.126Z,12.10
2023-04-24T11:46:41.192Z,12.10
2023-04-24T11:49:09.493Z,12.10
2023-04-24T11:51:48.285Z,12.10
2023-04-24T11:54:20.745Z,12.20
2023-04-24T11:56:52.158Z,12.20
2023-04-24T11:59:20.282Z,12.30
2023-04-24T12:01:49.502Z,12.30
2023-04-24T12:04:19.451Z,12.40
2023-04-24T12:07:03.071Z,12.40
2023-04-24T12:09:31.348Z,12.40
2023-04-24T12:12:00.644Z,12.40
2023-04-24T12:14:28.669Z,12.50
2023-04-24T12:16:56.737Z,12.50
2023-04-24T12:19:26.177Z,12.50
2023-04-24T12:22:05.071Z,12.60
2023-04-24T12:24:33.421Z,12.60
2023-04-24T12:27:03.572Z,12.60
2023-04-24T12:29:31.512Z,12.60
2023-04-24T12:31:59.426Z,12.60
2023-04-24T12:34:27.671Z,12.60
2023-04-24T12:36:55.667Z,12.60
2023-04-24T12:39:25.656Z,12.70
2023-04-24T12:41:58.634Z,12.70
2023-04-24T12:44:35.674Z,12.60
2023-04-24T12:47:03.902Z,12.60
2023-04-24T12:49:32.709Z,12.70
2023-04-24T12:52:00.777Z,12.70
2023-04-24T12:54:34.070Z,12.70
2023-04-24T12:57:02.404Z,12.70
2023-04-24T12:59:30.552Z,12.70
2023-04-24T13:01:59.951Z,12.80
2023-04-24T13:04:27.867Z,12.90
2023-04-24T13:06:55.709Z,12.90
2023-04-24T13:09:24.696Z,13.00
2023-04-24T13:11:52.739Z,13.10
2023-04-24T13:14:20.728Z,13.10
2023-04-24T13:16:48.580Z,13.20
2023-04-24T13:19:17.750Z,13.30
2023-04-24T13:21:45.682Z,13.30
2023-04-24T13:24:14.149Z,13.40
2023-04-24T13:26:42.037Z,13.40
2023-04-24T13:29:09.992Z,13.40
2023-04-24T13:31:37.932Z,13.40
2023-04-24T13:34:06.208Z,13.40
2023-04-24T13:36:36.168Z,13.40
2023-04-24T13:39:05.372Z,13.50
2023-04-24T13:41:34.083Z,13.40
2023-04-24T13:44:01.974Z,13.50
2023-04-24T13:46:30.181Z,13.50
2023-04-24T13:48:58.836Z,13.60
2023-04-24T13:51:28.794Z,13.70
2023-04-24T13:53:58.146Z,13.70
2023-04-24T13:56:26.103Z,13.70
2023-04-24T13:58:55.573Z,13.70
2023-04-24T14:01:25.685Z,13.70
2023-04-24T14:03:53.821Z,13.70
2023-04-24T14:06:22.237Z,13.70
2023-04-24T14:08:50.371Z,13.70
2023-04-24T14:11:20.483Z,13.70
2023-04-24T14:13:48.662Z,13.70
2023-04-24T14:16:16.723Z,13.60
2023-04-24T14:18:44.690Z,13.60
2023-04-24T14:21:12.643Z,13.60
2023-04-24T14:23:40.546Z,13.60
2023-04-24T14:26:08.489Z,13.70
2023-04-24T14:28:37.818Z,13.70
2023-04-24T14:31:06.324Z,13.80
2023-04-24T14:33:34.517Z,13.90
2023-04-24T14:36:03.597Z,13.90
2023-04-24T14:38:32.392Z,13.80
2023-04-24T14:41:06.793Z,13.80
2023-04-24T14:43:37.360Z,13.80
2023-04-24T14:46:06.708Z,13.80
2023-04-24T14:48:34.612Z,13.90
2023-04-24T14:51:02.460Z,13.90
2023-04-24T14:53:30.700Z,13.80
2023-04-24T14:55:58.654Z,13.80
2023-04-24T14:58:26.583Z,13.80
2023-04-24T15:00:55.829Z,13.70
2023-04-24T15:03:24.412Z,13.70
2023-04-24T15:05:52.697Z,13.70
2023-04-24T15:08:20.664Z,13.70
2023-04-24T15:10:48.905Z,13.70
2023-04-24T15:13:16.815Z,13.70
2023-04-24T15:15:44.690Z,13.60
2023-04-24T15:18:13.954Z,13.60
2023-04-24T15:20:42.313Z,13.60
2023-04-24T15:23:10.746Z,13.60
2023-04-24T15:25:39.325Z,13.60
2023-04-24T15:28:12.986Z,13.50
2023-04-24T15:30:40.986Z,13.50
2023-04-24T15:33:08.976Z,13.50
2023-04-24T15:35:38.217Z,13.40
2023-04-24T15:38:06.176Z,13.40
2023-04-24T15:40:34.036Z,13.30
2023-04-24T15:43:01.940Z,13.30
2023-04-24T15:45:30.033Z,13.30
2023-04-24T15:47:58.148Z,13.30
2023-04-24T15:50:26.301Z,13.20
2023-04-24T15:52:55.600Z,13.20
2023-04-24T15:55:23.510Z,13.20
2023-04-24T15:57:51.398Z,13.20
2023-04-24T16:00:19.984Z,13.20
2023-04-24T16:02:48.906Z,13.20
2023-04-24T16:05:16.781Z,13.20
2023-04-24T16:07:44.631Z,13.20
2023-04-24T16:10:14.013Z,13.10
2023-04-24T16:12:41.949Z,13.10
2023-04-24T16:15:10.823Z,13.10
2023-04-24T16:17:38.954Z,13.10
2023-04-24T16:20:08.144Z,13.10
2023-04-24T16:22:36.062Z,13.10
2023-04-24T16:25:03.945Z,13.10
2023-04-24T16:27:33.360Z,13.20
2023-04-24T16:30:01.540Z,13.20
2023-04-24T16:32:29.641Z,13.20
2023-04-24T16:34:57.551Z,13.20
2023-04-24T16:37:26.175Z,13.20
2023-04-24T16:39:54.986Z,13.20
2023-04-24T16:42:22.925Z,13.20
2023-04-24T16:44:52.124Z,13.20
2023-04-24T16:47:20.406Z,13.20
2023-04-24T16:49:49.853Z,13.20
2023-04-24T16:52:17.722Z,13.20
2023-04-24T16:54:45.648Z,13.20
2023-04-24T16:57:13.569Z,13.20
2023-04-24T16:59:41.377Z,13.20
2023-04-24T17:02:10.837Z,13.20
2023-04-24T17:04:38.832Z,13.20
2023-04-24T17:07:06.732Z,13.20
2023-04-24T17:09:34.823Z,13.10
2023-04-24T17:12:03.403Z,13.20
2023-04-24T17:14:31.412Z,13.10
2023-04-24T17:16:59.328Z,13.10
2023-04-24T17:19:28.641Z,13.10
2023-04-24T17:21:57.631Z,13.10
2023-04-24T17:24:25.831Z,13.10
2023-04-24T17:26:58.807Z,13.10
2023-04-24T17:29:29.439Z,13.00
2023-04-24T17:31:57.327Z,12.90
2023-04-24T17:34:25.331Z,12.80
2023-04-24T17:36:54.600Z,12.80
2023-04-24T17:39:22.512Z,12.70
2023-04-24T17:41:50.644Z,12.70
2023-04-24T17:44:18.536Z,12.60
2023-04-24T17:46:46.480Z,12.60
2023-04-24T17:49:14.433Z,12.50
2023-04-24T17:51:42.309Z,12.50
2023-04-24T17:54:11.722Z,12.50
2023-04-24T17:56:39.697Z,12.50
2023-04-24T17:59:07.559Z,12.50
2023-04-24T18:01:35.544Z,12.50
2023-04-24T18:04:03.838Z,12.50
2023-04-24T18:06:32.479Z,12.60
2023-04-24T18:09:00.328Z,12.60
2023-04-24T18:11:29.625Z,12.60
2023-04-24T18:13:57.571Z,12.50
2023-04-24T18:16:26.023Z,12.50
2023-04-24T18:18:54.458Z,12.50
2023-04-24T18:21:23.632Z,12.50
2023-04-24T18:23:51.558Z,12.50
2023-04-24T18:26:19.493Z,12.50
2023-04-24T18:28:48.900Z,12.50
2023-04-24T18:31:17.238Z,12.40
2023-04-24T18:33:45.214Z,12.40
2023-04-24T18:36:13.078Z,12.40
2023-04-24T18:38:41.022Z,12.40
2023-04-24T18:41:09.127Z,12.40
2023-04-24T18:43:37.019Z,12.30
2023-04-24T18:46:06.403Z,12.30
2023-04-24T18:48:34.402Z,12.30
2023-04-24T18:51:02.404Z,12.30
2023-04-24T18:53:30.283Z,12.20
